Time;durP1;ratioP1;P1;durP2;ratioP2;P2;SDS_P1;SDS_P2;PMS_P1;PMS_P2;Temp;Humidity;BMP_temperature;BMP_pressure;BME280_temperature;BME280_humidity;BME280_pressure;Samples;Min_cycle;Max_cycle;Signal;HPM_P1;HPM_P2
2024/03/20 00:02:48;;;;;;;95.10;43.70;;;;;;;-0.12;74.73;100931.00;128624;1285;108820;-85
2024/03/20 00:05:53;;;;;;;89.30;41.50;;;;;;;-0.17;74.81;100933.52;128672;1281;107547;-83
2024/03/20 00:08:58;;;;;;;92.70;41.10;;;;;;;-0.23;75.06;100930.77;128655;1286;108843;-83
2024/03/20 00:12:03;;;;;;;89.60;41.90;;;;;;;-0.27;74.82;100935.17;128867;1289;106494;-83
2024/03/20 00:15:09;;;;;;;92.90;43.10;;;;;;;-0.32;74.79;100935.03;128710;1282;108711;-83
2024/03/20 00:18:15;;;;;;;85.90;41.10;;;;;;;-0.34;74.99;100937.41;128688;1282;108592;-84
2024/03/20 00:21:21;;;;;;;96.80;43.80;;;;;;;-0.40;74.64;100940.23;128723;1280;106945;-83
2024/03/20 00:24:27;;;;;;;96.70;41.70;;;;;;;-0.46;74.92;100934.75;128761;1279;108654;-83
2024/03/20 00:27:32;;;;;;;96.40;42.60;;;;;;;-0.48;75.05;100935.52;128712;1279;108911;-85
2024/03/20 00:30:39;;;;;;;96.40;41.60;;;;;;;-0.50;74.86;100933.67;128791;1280;108888;-84
2024/03/20 00:33:45;;;;;;;87.50;39.80;;;;;;;-0.51;74.87;100934.27;129250;1282;107798;-83
2024/03/20 00:36:50;;;;;;;89.30;38.70;;;;;;;-0.53;74.61;100928.59;129473;1279;108825;-83
2024/03/20 00:39:55;;;;;;;83.20;35.00;;;;;;;-0.53;74.70;100923.71;129796;1282;108827;-83
2024/03/20 00:43:00;;;;;;;83.00;36.60;;;;;;;-0.48;74.82;100923.46;128992;1277;106135;-83
2024/03/20 00:46:06;;;;;;;83.80;37.30;;;;;;;-0.47;74.39;100914.84;128802;1281;108485;-83
2024/03/20 00:49:11;;;;;;;75.00;35.40;;;;;;;-0.45;74.63;100910.59;128769;1289;107715;-83
2024/03/20 00:52:16;;;;;;;79.80;34.90;;;;;;;-0.45;74.77;100909.34;128765;1277;107603;-83
2024/03/20 00:55:22;;;;;;;74.00;35.70;;;;;;;-0.49;74.61;100910.39;129093;1277;108873;-82
2024/03/20 00:58:30;;;;;;;74.90;34.00;;;;;;;-0.54;74.66;100913.06;129575;1281;107741;-83
2024/03/20 01:01:35;;;;;;;73.40;34.50;;;;;;;-0.56;74.71;100903.89;129614;1289;106758;-85
2024/03/20 01:04:41;;;;;;;74.40;33.70;;;;;;;-0.60;74.71;100902.84;129467;1277;106611;-85
2024/03/20 01:07:46;;;;;;;85.50;36.00;;;;;;;-0.62;74.51;100895.59;129417;1283;108706;-83
2024/03/20 01:10:51;;;;;;;87.10;37.80;;;;;;;-0.64;74.66;100892.67;129438;1282;107758;-83
2024/03/20 01:13:59;;;;;;;82.80;36.30;;;;;;;-0.64;74.57;100897.06;129142;1279;107769;-84
2024/03/20 01:17:04;;;;;;;85.50;36.30;;;;;;;-0.67;74.51;100892.66;129072;1282;107817;-85
2024/03/20 01:20:11;;;;;;;93.80;37.10;;;;;;;-0.70;74.49;100890.86;128921;1289;108763;-85
2024/03/20 01:23:17;;;;;;;86.60;35.60;;;;;;;-0.73;74.48;100886.83;128784;1282;106537;-84
2024/03/20 01:26:22;;;;;;;102.40;41.50;;;;;;;-0.78;74.49;100885.45;128926;1277;107593;-84
2024/03/20 01:29:27;;;;;;;95.80;40.30;;;;;;;-0.82;74.51;100885.05;129051;1281;108671;-85
2024/03/20 01:32:32;;;;;;;100.00;39.60;;;;;;;-0.84;74.59;100886.74;128832;1277;107214;-84
2024/03/20 01:35:37;;;;;;;98.70;39.50;;;;;;;-0.87;74.56;100888.05;128802;1282;107750;-84
2024/03/20 01:38:43;;;;;;;103.20;41.80;;;;;;;-0.89;74.59;100890.42;128821;1282;106735;-83
2024/03/20 01:41:48;;;;;;;106.00;44.90;;;;;;;-0.96;74.51;100895.61;128979;1280;108778;-84
2024/03/20 01:45:13;;;;;;;113.20;46.70;;;;;;;-0.98;74.53;100897.98;128857;1282;106483;-83
2024/03/20 01:48:18;;;;;;;209.20;90.50;;;;;;;-0.99;74.42;100900.66;128851;1289;109601;-84
2024/03/20 01:51:23;;;;;;;166.60;61.20;;;;;;;-1.01;74.79;100900.71;128748;1282;108810;-84
2024/03/20 01:54:29;;;;;;;116.00;45.60;;;;;;;-1.08;74.02;100905.02;128771;1276;108761;-84
2024/03/20 01:57:35;;;;;;;69.10;26.50;;;;;;;-1.13;74.73;100904.71;128575;1282;106491;-83
2024/03/20 02:00:40;;;;;;;101.10;37.70;;;;;;;-1.10;74.47;100904.41;128729;1289;106738;-84
2024/03/20 02:03:45;;;;;;;107.60;40.20;;;;;;;-1.06;74.64;100907.05;128659;1282;108809;-83
2024/03/20 02:06:50;;;;;;;105.90;40.50;;;;;;;-0.99;74.64;100905.52;128778;1281;108777;-83
2024/03/20 02:09:55;;;;;;;117.10;45.30;;;;;;;-0.93;74.55;100903.35;128729;1280;108935;-83
2024/03/20 02:13:05;;;;;;;111.70;44.40;;;;;;;-0.91;74.44;100905.54;128964;1281;108844;-83
2024/03/20 02:16:11;;;;;;;114.00;43.50;;;;;;;-0.92;74.38;100904.35;128853;1281;108698;-84
2024/03/20 02:19:16;;;;;;;112.70;43.00;;;;;;;-0.96;74.42;100905.92;128923;1277;108784;-84
2024/03/20 02:22:21;;;;;;;104.90;41.90;;;;;;;-1.01;74.21;100909.98;128903;1282;106679;-83
2024/03/20 02:25:29;;;;;;;103.80;42.10;;;;;;;-1.06;74.36;100909.83;129113;1276;106588;-83
2024/03/20 02:28:35;;;;;;;97.40;40.40;;;;;;;-1.11;74.48;100911.07;128985;1281;108858;-84
2024/03/20 02:31:40;;;;;;;108.70;41.40;;;;;;;-1.14;74.41;100911.21;128748;1282;218249;-85
2024/03/20 02:34:45;;;;;;;101.90;41.00;;;;;;;-1.20;74.28;100909.14;128841;1280;108804;-83
2024/03/20 02:37:50;;;;;;;107.70;41.10;;;;;;;-1.23;74.49;100906.64;128745;1280;107745;-83
2024/03/20 02:40:57;;;;;;;94.00;39.30;;;;;;;-1.26;74.35;100904.33;128777;1283;107385;-85
2024/03/20 02:44:03;;;;;;;94.50;38.70;;;;;;;-1.28;74.46;100900.09;128990;1280;108760;-84
2024/03/20 02:47:09;;;;;;;95.80;38.70;;;;;;;-1.30;74.40;100897.69;129229;1281;108858;-83
2024/03/20 02:50:14;;;;;;;95.40;37.90;;;;;;;-1.33;74.15;100894.34;129227;1276;107647;-83
2024/03/20 02:53:19;;;;;;;89.90;36.70;;;;;;;-1.40;74.31;100892.19;129216;1281;108536;-85
2024/03/20 02:56:25;;;;;;;84.80;36.70;;;;;;;-1.43;74.47;100888.44;128706;1280;106948;-85
2024/03/20 02:59:30;;;;;;;90.40;36.40;;;;;;;-1.47;74.30;100886.33;128697;1280;108174;-83
2024/03/20 03:02:35;;;;;;;88.00;36.60;;;;;;;-1.49;74.34;100885.70;129072;1280;107835;-83
2024/03/20 03:05:41;;;;;;;94.40;37.40;;;;;;;-1.51;74.66;100889.30;129224;1277;108900;-83
2024/03/20 03:08:46;;;;;;;86.30;36.40;;;;;;;-1.55;74.57;100887.53;129279;1277;107799;-83
2024/03/20 03:11:51;;;;;;;93.40;39.50;;;;;;;-1.57;74.59;100888.84;129271;1280;107666;-82
2024/03/20 03:14:57;;;;;;;107.50;43.40;;;;;;;-1.57;74.41;100885.70;129336;1279;109084;-82
2024/03/20 03:18:02;;;;;;;88.60;38.90;;;;;;;-1.61;74.41;100884.09;129460;1282;107446;-83
2024/03/20 03:21:10;;;;;;;82.70;35.80;;;;;;;-1.61;74.38;100886.70;129022;1289;108258;-83
2024/03/20 03:24:15;;;;;;;83.20;36.80;;;;;;;-1.56;74.49;100883.21;128912;1280;107305;-84
2024/03/20 03:27:20;;;;;;;78.70;33.00;;;;;;;-1.48;74.49;100887.61;129198;1276;107899;-84
2024/03/20 03:30:26;;;;;;;89.20;36.90;;;;;;;-1.45;74.26;100888.53;128745;1279;106845;-84
2024/03/20 03:33:31;;;;;;;84.80;36.40;;;;;;;-1.44;74.39;100890.23;128839;1289;106300;-82
2024/03/20 03:36:36;;;;;;;79.20;35.30;;;;;;;-1.40;74.32;100888.69;128883;1276;108749;-82
2024/03/20 03:39:41;;;;;;;82.80;35.10;;;;;;;-1.38;74.25;100891.74;128820;1276;107804;-83
2024/03/20 03:42:47;;;;;;;80.40;34.00;;;;;;;-1.40;73.95;100889.19;128724;1280;107981;-76
2024/03/20 03:45:52;;;;;;;73.90;32.70;;;;;;;-1.43;74.11;100884.97;130018;1275;109151;-76
2024/03/20 03:48:57;;;;;;;78.80;33.30;;;;;;;-1.46;74.41;100881.42;132693;1276;108686;-76
2024/03/20 03:52:03;;;;;;;78.10;32.70;;;;;;;-1.51;74.04;100875.86;132491;1278;108847;-77
2024/03/20 03:55:09;;;;;;;74.90;34.20;;;;;;;-1.53;73.99;100881.33;131600;1278;106836;-76
2024/03/20 03:58:15;;;;;;;68.90;31.70;;;;;;;-1.54;73.96;100882.27;128445;1282;109303;-76
2024/03/20 04:01:21;;;;;;;71.40;32.20;;;;;;;-1.61;73.86;100877.98;128675;1281;106521;-76
2024/03/20 04:04:26;;;;;;;74.00;31.60;;;;;;;-1.62;74.12;100876.46;128637;1289;106881;-77
2024/03/20 04:07:31;;;;;;;73.40;32.70;;;;;;;-1.63;74.22;100876.82;128495;1282;106552;-77
2024/03/20 04:10:37;;;;;;;70.10;32.00;;;;;;;-1.67;74.15;100874.54;128327;1277;107770;-77
2024/03/20 04:13:42;;;;;;;68.40;32.10;;;;;;;-1.67;74.22;100876.66;128368;1279;106964;-75
2024/03/20 04:16:48;;;;;;;72.10;31.80;;;;;;;-1.70;74.35;100876.61;128310;1282;106921;-78
2024/03/20 04:19:53;;;;;;;76.70;34.70;;;;;;;-1.73;74.35;100878.82;128562;1289;108831;-75
2024/03/20 04:22:59;;;;;;;73.80;32.80;;;;;;;-1.78;73.92;100878.84;128591;1281;108005;-75
2024/03/20 04:26:05;;;;;;;71.10;31.20;;;;;;;-1.82;74.12;100877.06;128613;1280;107308;-77
2024/03/20 04:29:10;;;;;;;70.80;31.80;;;;;;;-1.85;74.10;100875.22;128359;1279;107836;-77
2024/03/20 04:32:16;;;;;;;78.00;32.50;;;;;;;-1.87;74.08;100878.79;128494;1281;106794;-76
2024/03/20 04:35:21;;;;;;;68.90;30.20;;;;;;;-1.88;74.14;100877.11;128440;1282;107579;-74
2024/03/20 04:38:26;;;;;;;69.90;31.20;;;;;;;-1.89;74.07;100879.09;128464;1281;106544;-77
2024/03/20 04:41:34;;;;;;;69.00;30.60;;;;;;;-1.91;74.11;100882.83;128318;1285;107469;-74
2024/03/20 04:44:43;;;;;;;65.50;30.20;;;;;;;-1.96;74.10;100881.42;128414;1289;108661;-77
2024/03/20 04:47:52;;;;;;;63.90;30.30;;;;;;;-1.99;74.30;100880.98;128332;1281;106599;-74
2024/03/20 04:50:57;;;;;;;55.80;24.50;;;;;;;-2.00;74.22;100876.86;128457;1282;108647;-73
2024/03/20 04:54:03;;;;;;;65.10;27.00;;;;;;;-1.99;74.28;100876.10;128291;1281;107459;-75
2024/03/20 04:57:08;;;;;;;69.80;30.00;;;;;;;-1.93;74.22;100878.86;128511;1282;107625;-75
2024/03/20 05:00:17;;;;;;;65.50;28.80;;;;;;;-1.88;74.18;100879.02;128443;1276;107101;-75
2024/03/20 05:03:22;;;;;;;79.50;34.90;;;;;;;-1.78;74.37;100880.75;128398;1290;107166;-76
2024/03/20 05:06:27;;;;;;;71.80;33.60;;;;;;;-1.71;74.16;100884.09;128454;1281;106548;-75
2024/03/20 05:09:32;;;;;;;66.80;32.80;;;;;;;-1.66;74.13;100888.47;128336;1281;106480;-75
2024/03/20 05:12:37;;;;;;;72.10;34.40;;;;;;;-1.60;74.42;100887.54;128454;1280;106821;-76
2024/03/20 05:15:49;;;;;;;84.20;36.10;;;;;;;-1.53;74.33;100892.34;128546;1282;108774;-75
2024/03/20 05:18:53;;;;;;;;;;;;;;;-1.47;74.46;100896.63;128655;1279;107578;-77
2024/03/20 05:21:59;;;;;;;71.10;33.30;;;;;;;-1.41;74.26;100900.60;128500;1276;108631;-77
2024/03/20 05:25:05;;;;;;;77.70;35.50;;;;;;;-1.39;74.29;100905.55;128393;1279;108862;-76
2024/03/20 05:28:11;;;;;;;80.80;38.00;;;;;;;-1.34;74.30;100906.60;128291;1282;106505;-75
2024/03/20 05:31:28;;;;;;;83.10;38.60;;;;;;;-1.28;74.52;100906.02;128542;1281;108796;-77
2024/03/20 05:34:33;;;;;;;84.80;38.00;;;;;;;-1.24;74.52;100905.83;128638;1280;108673;-76
2024/03/20 05:37:40;;;;;;;88.70;41.30;;;;;;;-1.16;74.69;100908.14;128228;1282;109187;-74
2024/03/20 05:40:45;;;;;;;92.10;43.10;;;;;;;-1.09;74.64;100909.96;128631;1281;108915;-77
2024/03/20 05:43:51;;;;;;;90.10;42.40;;;;;;;-1.04;74.80;100908.86;128649;1280;107779;-77
2024/03/20 05:46:56;;;;;;;95.10;45.40;;;;;;;-0.95;74.86;100909.75;128865;1281;108742;-80
2024/03/20 05:50:02;;;;;;;99.60;47.30;;;;;;;-0.88;74.99;100915.02;128925;1276;108587;-76
2024/03/20 05:53:07;;;;;;;96.80;47.40;;;;;;;-0.83;75.11;100922.48;128454;1277;106054;-77
2024/03/20 05:56:13;;;;;;;97.20;46.70;;;;;;;-0.83;75.44;100924.08;128625;1280;106613;-76
2024/03/20 05:59:18;;;;;;;101.30;50.00;;;;;;;-0.78;75.74;100928.21;128551;1277;108465;-75
2024/03/20 06:02:23;;;;;;;106.90;52.00;;;;;;;-0.65;76.15;100927.71;128718;1282;107800;-75
2024/03/20 06:05:28;;;;;;;110.80;49.30;;;;;;;-0.48;76.46;100931.52;128617;1281;108549;-76
2024/03/20 06:08:33;;;;;;;105.40;49.10;;;;;;;-0.28;76.52;100929.61;128670;1277;109248;-76
2024/03/20 06:11:38;;;;;;;98.70;46.00;;;;;;;-0.06;76.61;100926.00;128589;1276;108543;-77
2024/03/20 06:14:43;;;;;;;108.40;53.20;;;;;;;0.18;76.58;100927.91;128312;1279;108870;-75
2024/03/20 06:17:49;;;;;;;108.40;54.50;;;;;;;0.39;76.92;100929.05;128297;1280;105978;-76
2024/03/20 06:20:54;;;;;;;104.10;55.00;;;;;;;0.59;76.97;100925.45;128533;1280;108873;-76
2024/03/20 06:23:59;;;;;;;119.30;63.50;;;;;;;0.79;77.01;100918.58;128556;1280;107760;-76
2024/03/20 06:27:05;;;;;;;106.80;57.70;;;;;;;0.93;77.14;100921.23;128530;1280;107149;-80
2024/03/20 06:30:12;;;;;;;109.80;58.30;;;;;;;1.04;77.25;100920.01;128566;1277;109503;-76
2024/03/20 06:33:18;;;;;;;107.00;58.00;;;;;;;1.16;77.63;100918.34;128524;1280;106821;-77
2024/03/20 06:36:23;;;;;;;111.10;61.50;;;;;;;1.27;77.91;100923.77;128504;1281;108052;-77
2024/03/20 06:39:29;;;;;;;101.40;53.70;;;;;;;1.33;77.94;100925.23;128563;1280;108192;-78
2024/03/20 06:42:34;;;;;;;99.40;51.80;;;;;;;1.37;77.95;100932.89;128557;1280;106735;-76
2024/03/20 06:45:42;;;;;;;91.70;48.20;;;;;;;1.44;78.58;100936.94;128481;1281;108132;-78
2024/03/20 06:48:48;;;;;;;92.80;45.10;;;;;;;1.51;78.64;100934.14;128384;1280;108855;-76
2024/03/20 06:51:53;;;;;;;83.90;42.40;;;;;;;1.61;78.59;100934.67;128281;1277;107756;-76
2024/03/20 06:54:58;;;;;;;64.30;34.00;;;;;;;1.73;79.11;100929.29;128508;1281;107817;-77
2024/03/20 06:58:04;;;;;;;64.30;34.90;;;;;;;1.79;79.71;100931.78;128543;1280;106730;-78
2024/03/20 07:01:09;;;;;;;64.90;36.20;;;;;;;1.83;79.79;100937.03;128370;1277;108750;-77
2024/03/20 07:04:14;;;;;;;75.10;40.30;;;;;;;1.91;80.13;100939.20;128388;1280;107643;-76
2024/03/20 07:07:19;;;;;;;80.50;42.70;;;;;;;2.01;80.14;100943.30;128525;1280;106766;-77
2024/03/20 07:10:25;;;;;;;75.90;41.70;;;;;;;2.10;79.92;100943.67;128269;1277;107478;-77
2024/03/20 07:13:30;;;;;;;77.00;44.10;;;;;;;2.25;80.00;100936.34;128266;1279;108758;-77
2024/03/20 07:16:35;;;;;;;80.00;45.60;;;;;;;2.35;80.16;100935.14;128521;1282;108838;-78
2024/03/20 07:19:40;;;;;;;74.50;41.50;;;;;;;2.45;80.19;100937.75;128521;1277;108890;-79
2024/03/20 07:22:45;;;;;;;65.90;37.20;;;;;;;2.57;79.95;100930.04;128509;1280;107546;-78
2024/03/20 07:25:50;;;;;;;62.20;33.80;;;;;;;2.68;79.88;100929.41;128499;1290;109167;-76
2024/03/20 07:28:56;;;;;;;58.70;34.30;;;;;;;2.79;79.70;100924.45;128512;1279;107770;-77
2024/03/20 07:32:01;;;;;;;59.30;32.40;;;;;;;2.96;79.73;100919.45;128499;1278;106532;-79
2024/03/20 07:35:08;;;;;;;59.00;33.20;;;;;;;3.11;79.29;100917.55;128548;1280;108851;-77
2024/03/20 07:38:14;;;;;;;53.70;31.40;;;;;;;3.24;79.38;100918.75;128511;1280;107659;-77
2024/03/20 07:41:19;;;;;;;57.30;31.70;;;;;;;3.36;79.29;100913.79;128355;1280;107852;-77
2024/03/20 07:44:24;;;;;;;52.60;31.20;;;;;;;3.45;79.25;100905.37;128389;1281;107775;-76
2024/03/20 07:47:29;;;;;;;47.40;28.10;;;;;;;3.54;79.05;100898.84;128311;1288;107733;-76
2024/03/20 07:50:34;;;;;;;107.80;57.70;;;;;;;3.63;79.24;100901.29;128413;1281;107755;-77
2024/03/20 07:53:39;;;;;;;188.30;87.50;;;;;;;3.69;79.12;100900.73;128373;1280;106397;-76
2024/03/20 07:56:45;;;;;;;73.90;39.50;;;;;;;3.75;78.98;100903.20;128238;1276;107890;-76
2024/03/20 07:59:50;;;;;;;56.70;33.90;;;;;;;3.83;78.85;100902.70;128235;1280;107966;-78
2024/03/20 08:02:56;;;;;;;53.10;31.20;;;;;;;3.92;78.87;100902.85;128308;1280;108009;-77
2024/03/20 08:06:03;;;;;;;53.60;31.90;;;;;;;4.00;78.68;100902.56;128403;1281;107957;-76
2024/03/20 08:09:08;;;;;;;55.50;32.00;;;;;;;4.04;78.82;100901.42;128346;1280;108799;-77
2024/03/20 08:12:14;;;;;;;96.70;51.90;;;;;;;4.06;78.49;100908.16;128361;1277;106267;-77
2024/03/20 08:15:19;;;;;;;52.90;29.30;;;;;;;4.11;78.98;100916.83;128271;1278;108889;-77
2024/03/20 08:18:26;;;;;;;68.10;36.50;;;;;;;4.20;78.61;100912.75;128333;1281;108274;-77
2024/03/20 08:21:32;;;;;;;36.90;23.30;;;;;;;4.31;78.61;100916.98;128431;1281;108752;-77
2024/03/20 08:24:37;;;;;;;39.90;24.80;;;;;;;4.45;78.49;100915.45;128395;1281;107706;-77
2024/03/20 08:27:42;;;;;;;39.50;25.10;;;;;;;4.59;78.60;100908.17;128444;1278;107683;-77
2024/03/20 08:30:49;;;;;;;38.40;25.20;;;;;;;4.73;78.43;100910.98;128376;1282;106543;-77
2024/03/20 08:33:54;;;;;;;72.50;42.20;;;;;;;4.83;78.43;100910.67;128452;1280;106899;-77
2024/03/20 08:36:59;;;;;;;52.10;31.00;;;;;;;4.90;78.30;100909.52;128417;1289;109104;-77
2024/03/20 08:40:09;;;;;;;44.00;27.10;;;;;;;4.95;78.01;100902.15;128401;1280;107733;-77
2024/03/20 08:43:14;;;;;;;42.90;26.50;;;;;;;4.98;77.90;100904.60;128465;1279;109511;-77
2024/03/20 08:46:20;;;;;;;45.70;27.40;;;;;;;5.00;77.81;100907.11;128459;1281;106697;-77
2024/03/20 08:49:26;;;;;;;46.00;29.50;;;;;;;5.02;77.34;100908.05;128264;1277;107944;-76
2024/03/20 08:52:31;;;;;;;45.00;27.20;;;;;;;5.09;77.73;100906.16;128281;1280;108555;-77
2024/03/20 08:55:38;;;;;;;44.10;27.80;;;;;;;5.14;77.19;100907.41;128286;1280;108779;-77
2024/03/20 08:58:43;;;;;;;41.90;26.50;;;;;;;5.14;76.89;100909.05;128249;1280;107669;-78
2024/03/20 09:01:48;;;;;;;39.60;25.10;;;;;;;5.19;77.07;100906.93;128343;1279;107936;-77
2024/03/20 09:04:53;;;;;;;35.10;23.00;;;;;;;5.19;75.99;100908.28;128301;1281;108764;-77
2024/03/20 09:07:58;;;;;;;36.10;24.20;;;;;;;5.25;76.85;100907.03;128400;1279;107832;-77
2024/03/20 09:11:04;;;;;;;38.30;23.90;;;;;;;5.34;76.74;100908.04;128300;1280;106488;-76
2024/03/20 09:14:09;;;;;;;37.20;24.50;;;;;;;5.38;76.40;100909.36;128265;1279;108788;-77
2024/03/20 09:17:15;;;;;;;35.80;24.20;;;;;;;5.41;76.43;100908.75;128248;1280;108683;-77
2024/03/20 09:20:20;;;;;;;35.50;24.00;;;;;;;5.47;76.18;100906.79;128334;1280;106970;-77
2024/03/20 09:23:25;;;;;;;33.10;21.40;;;;;;;5.59;76.49;100903.02;128306;1279;109531;-77
2024/03/20 09:26:30;;;;;;;34.30;21.80;;;;;;;5.67;76.45;100893.77;128383;1280;106491;-77
2024/03/20 09:29:35;;;;;;;31.50;21.50;;;;;;;5.72;76.03;100888.27;128270;1281;108819;-77
2024/03/20 09:32:41;;;;;;;47.20;30.80;;;;;;;5.79;76.18;100886.77;128332;1279;108984;-76
2024/03/20 09:35:46;;;;;;;44.10;27.80;;;;;;;5.88;76.15;100881.20;128264;1277;108891;-77
2024/03/20 09:38:51;;;;;;;38.40;25.70;;;;;;;5.98;76.12;100880.54;128288;1280;108389;-77
2024/03/20 09:41:57;;;;;;;42.10;26.50;;;;;;;6.06;75.86;100878.52;128317;1280;105757;-78
2024/03/20 09:45:03;;;;;;;40.50;26.30;;;;;;;6.14;75.73;100877.50;128312;1281;106679;-77
2024/03/20 09:48:11;;;;;;;41.00;26.90;;;;;;;6.22;75.68;100876.16;128374;1279;108606;-76
2024/03/20 09:51:18;;;;;;;32.30;21.00;;;;;;;6.33;75.79;100875.27;128297;1280;108782;-77
2024/03/20 09:54:25;;;;;;;32.90;22.20;;;;;;;6.45;75.69;100870.69;128354;1279;107106;-77
2024/03/20 09:57:30;;;;;;;80.60;44.80;;;;;;;6.59;75.52;100869.95;128441;1282;107057;-77
2024/03/20 10:00:35;;;;;;;45.80;29.10;;;;;;;6.75;75.36;100870.60;128347;1280;107375;-77
2024/03/20 10:03:41;;;;;;;32.60;21.70;;;;;;;6.90;75.20;100876.41;128396;1276;106707;-76
2024/03/20 10:06:46;;;;;;;31.20;19.80;;;;;;;7.00;74.10;100874.02;128475;1279;109357;-79
2024/03/20 10:09:51;;;;;;;38.00;25.30;;;;;;;7.06;74.29;100874.67;128428;1282;106341;-77
2024/03/20 10:12:56;;;;;;;30.40;20.30;;;;;;;7.17;74.60;100873.15;128547;1280;106823;-77
2024/03/20 10:16:09;;;;;;;26.10;18.40;;;;;;;7.30;74.78;100870.90;128458;1281;106830;-77
2024/03/20 10:19:16;;;;;;;26.00;17.30;;;;;;;7.35;73.53;100869.65;128468;1276;108805;-78
2024/03/20 10:22:21;;;;;;;23.80;16.50;;;;;;;7.44;74.37;100863.95;128323;1281;107672;-77
2024/03/20 10:25:26;;;;;;;29.50;20.40;;;;;;;7.54;73.88;100861.14;128361;1279;108760;-77
2024/03/20 10:28:32;;;;;;;24.10;17.00;;;;;;;7.58;72.73;100856.59;128408;1280;107786;-77
2024/03/20 10:31:38;;;;;;;20.50;15.30;;;;;;;7.65;73.55;100857.23;128420;1281;108392;-77
2024/03/20 10:34:45;;;;;;;20.30;15.20;;;;;;;7.73;72.65;100854.69;128455;1280;108629;-77
2024/03/20 10:37:51;;;;;;;24.30;17.60;;;;;;;7.79;72.93;100852.46;128396;1277;107656;-77
2024/03/20 10:40:57;;;;;;;25.00;17.70;;;;;;;7.84;72.64;100847.78;128476;1279;108546;-77
2024/03/20 10:44:04;;;;;;;25.60;18.10;;;;;;;7.88;72.66;100845.05;128455;1280;107081;-77
2024/03/20 10:47:12;;;;;;;23.30;17.40;;;;;;;7.91;72.04;100841.79;128589;1279;108511;-77
2024/03/20 10:50:18;;;;;;;22.70;16.20;;;;;;;7.94;70.78;100842.45;128520;1281;108710;-77
2024/03/20 10:53:25;;;;;;;23.70;17.30;;;;;;;7.89;70.45;100841.79;128538;1280;108446;-77
2024/03/20 10:56:30;;;;;;;24.50;17.40;;;;;;;7.93;71.22;100837.36;128608;1279;106847;-77
2024/03/20 10:59:37;;;;;;;21.50;16.20;;;;;;;8.02;71.28;100834.17;128535;1277;107887;-77
2024/03/20 11:02:42;;;;;;;21.90;16.20;;;;;;;8.10;70.89;100829.98;128429;1280;108110;-77
2024/03/20 11:05:47;;;;;;;20.80;15.70;;;;;;;8.14;71.03;100833.16;128533;1280;108804;-78
2024/03/20 11:08:57;;;;;;;25.10;17.70;;;;;;;8.19;70.80;100833.30;128493;1278;107210;-77
2024/03/20 11:12:25;;;;;;;20.60;15.50;;;;;;;8.26;70.72;100825.89;128587;1279;107874;-77
2024/03/20 11:15:32;;;;;;;21.60;15.80;;;;;;;8.23;68.65;100823.44;128497;1281;106774;-77
2024/03/20 11:18:38;;;;;;;21.70;15.50;;;;;;;8.25;69.70;100823.79;128486;1277;107896;-77
2024/03/20 11:21:46;;;;;;;18.60;13.50;;;;;;;8.37;69.80;100821.96;128580;1279;106954;-77
2024/03/20 11:24:53;;;;;;;20.80;15.60;;;;;;;8.47;70.20;100818.88;128453;1279;106132;-77
2024/03/20 11:27:58;;;;;;;21.60;17.50;;;;;;;8.58;69.99;100812.13;128419;1280;106759;-77
2024/03/20 11:31:04;;;;;;;19.30;14.90;;;;;;;8.69;70.15;100811.58;128473;1281;108862;-77
2024/03/20 11:34:11;;;;;;;18.80;14.10;;;;;;;8.81;69.81;100811.11;128542;1280;106770;-77
2024/03/20 11:37:18;;;;;;;18.90;14.40;;;;;;;8.92;69.92;100801.70;128441;1277;108854;-77
2024/03/20 11:40:23;;;;;;;19.60;14.70;;;;;;;9.08;69.75;100805.05;128580;1281;107713;-77
2024/03/20 11:43:28;;;;;;;21.10;16.30;;;;;;;9.27;69.91;100797.11;128562;1280;106737;-77
2024/03/20 11:46:33;;;;;;;19.00;14.50;;;;;;;9.46;69.84;100798.65;128515;1281;107604;-77
2024/03/20 11:49:45;;;;;;;23.00;15.40;;;;;;;9.58;69.38;100789.81;128473;1276;108530;-79
2024/03/20 11:52:54;;;;;;;20.30;15.90;;;;;;;9.67;68.88;100789.79;128413;1279;108804;-79
2024/03/20 11:55:59;;;;;;;19.00;14.80;;;;;;;9.76;69.38;100788.06;128408;1280;107646;-79
2024/03/20 11:59:04;;;;;;;21.40;16.00;;;;;;;9.89;68.64;100778.98;128389;1279;108918;-79
2024/03/20 12:02:12;;;;;;;17.30;13.10;;;;;;;9.97;68.68;100776.45;128394;1279;108669;-79
2024/03/20 12:05:20;;;;;;;18.60;14.70;;;;;;;10.03;68.28;100775.43;128413;1277;108588;-79
2024/03/20 12:08:25;;;;;;;20.00;15.40;;;;;;;10.06;68.14;100769.13;128442;1281;106817;-79
2024/03/20 12:11:33;;;;;;;22.40;16.80;;;;;;;10.11;68.65;100766.13;128445;1280;108602;-79
2024/03/20 12:14:39;;;;;;;23.30;16.30;;;;;;;10.14;68.52;100765.48;128443;1277;108563;-79
2024/03/20 12:17:44;;;;;;;21.10;16.40;;;;;;;10.13;67.99;100766.11;128295;1278;108720;-79
2024/03/20 12:20:50;;;;;;;42.90;28.70;;;;;;;10.08;66.72;100765.66;128543;1279;107759;-77
2024/03/20 12:23:56;;;;;;;21.90;17.50;;;;;;;9.98;67.36;100759.65;128479;1281;107664;-77
2024/03/20 12:27:01;;;;;;;20.40;15.50;;;;;;;9.97;67.35;100758.50;128480;1276;108894;-77
2024/03/20 12:30:10;;;;;;;18.70;14.70;;;;;;;9.94;67.34;100757.89;128393;1281;106665;-77
2024/03/20 12:33:18;;;;;;;19.50;15.20;;;;;;;9.90;66.86;100751.13;128323;1278;106646;-77
2024/03/20 12:36:24;;;;;;;54.10;37.60;;;;;;;9.82;66.73;100748.41;128362;1283;107624;-77
2024/03/20 12:39:30;;;;;;;23.70;17.50;;;;;;;9.78;66.80;100745.25;128330;1278;108005;-77
2024/03/20 12:42:36;;;;;;;29.50;21.80;;;;;;;9.77;66.57;100745.20;128417;1278;108521;-77
2024/03/20 12:45:45;;;;;;;21.90;17.60;;;;;;;9.75;66.61;100749.42;128269;1281;108926;-77
2024/03/20 12:48:50;;;;;;;36.70;24.80;;;;;;;9.76;66.27;100748.67;128365;1279;106128;-78
2024/03/20 12:51:55;;;;;;;30.90;20.30;;;;;;;9.81;66.61;100745.74;128412;1281;108393;-77
2024/03/20 12:55:02;;;;;;;20.60;15.40;;;;;;;9.87;66.37;100739.72;128449;1281;106815;-77
2024/03/20 12:58:11;;;;;;;90.60;49.70;;;;;;;9.88;65.98;100736.25;128530;1281;107421;-76
2024/03/20 13:01:16;;;;;;;31.00;20.90;;;;;;;9.87;66.01;100733.13;128524;1276;108926;-77
2024/03/20 13:04:22;;;;;;;45.40;27.50;;;;;;;9.83;66.10;100726.20;128557;1277;108058;-77
2024/03/20 13:07:27;;;;;;;30.60;20.00;;;;;;;9.81;66.18;100723.27;128409;1280;107854;-77
2024/03/20 13:10:32;;;;;;;21.30;15.90;;;;;;;9.84;66.08;100720.90;128303;1279;106508;-77
2024/03/20 13:13:37;;;;;;;53.30;30.10;;;;;;;9.93;65.99;100719.82;128288;1282;108480;-76
2024/03/20 13:16:43;;;;;;;30.70;21.10;;;;;;;10.01;65.98;100718.52;128311;1279;107151;-77
2024/03/20 13:19:48;;;;;;;21.40;16.10;;;;;;;10.10;65.50;100725.67;128374;1282;107829;-77
2024/03/20 13:22:53;;;;;;;269.60;141.30;;;;;;;10.17;65.38;100719.06;128355;1281;107238;-77
2024/03/20 13:25:59;;;;;;;53.80;31.60;;;;;;;10.25;65.22;100713.20;128360;1280;107817;-77
2024/03/20 13:29:04;;;;;;;27.90;19.60;;;;;;;10.33;65.60;100711.97;128422;1279;106342;-77
2024/03/20 13:32:10;;;;;;;37.90;28.60;;;;;;;10.36;65.30;100707.52;128418;1280;108724;-77
2024/03/20 13:35:16;;;;;;;21.70;16.50;;;;;;;10.31;64.96;100699.45;128479;1281;108770;-77
2024/03/20 13:38:22;;;;;;;19.40;15.00;;;;;;;10.22;65.14;100700.83;128320;1284;107068;-77
2024/03/20 13:41:45;;;;;;;21.10;15.60;;;;;;;10.12;64.93;100698.30;128403;1277;107431;-77
2024/03/20 13:44:52;;;;;;;20.40;15.90;;;;;;;10.00;65.11;100701.77;128540;1280;107751;-77
2024/03/20 13:47:57;;;;;;;20.40;15.50;;;;;;;9.92;64.96;100702.14;128523;1281;108620;-77
2024/03/20 13:51:04;;;;;;;21.20;16.60;;;;;;;9.89;64.83;100701.13;128499;1281;106559;-77